sensor_id;sensor_type;location;lat;lon;timestamp;P1;durP1;ratioP1;P2;durP2;ratioP2
59950;SDS011;45812;53.540;9.774;2023-06-04T00:00:39;6.78;;;1.55;;
59950;SDS011;45812;53.540;9.774;2023-06-04T00:03:04;4.32;;;1.80;;
59950;SDS011;45812;53.540;9.774;2023-06-04T00:05:30;1.67;;;1.20;;
59950;SDS011;45812;53.540;9.774;2023-06-04T00:07:55;2.00;;;1.60;;
59950;SDS011;45812;53.540;9.774;2023-06-04T00:10:20;5.10;;;1.23;;
59950;SDS011;45812;53.540;9.774;2023-06-04T00:12:45;5.35;;;1.50;;
59950;SDS011;45812;53.540;9.774;2023-06-04T00:15:12;4.15;;;1.70;;
59950;SDS011;45812;53.540;9.774;2023-06-04T00:17:37;4.70;;;1.55;;
59950;SDS011;45812;53.540;9.774;2023-06-04T00:20:02;5.23;;;1.33;;
59950;SDS011;45812;53.540;9.774;2023-06-04T00:22:28;3.65;;;1.58;;
59950;SDS011;45812;53.540;9.774;2023-06-04T00:24:53;7.18;;;1.98;;
59950;SDS011;45812;53.540;9.774;2023-06-04T00:27:18;4.10;;;1.70;;
59950;SDS011;45812;53.540;9.774;2023-06-04T00:29:44;2.20;;;1.50;;
59950;SDS011;45812;53.540;9.774;2023-06-04T00:32:09;4.15;;;1.33;;
59950;SDS011;45812;53.540;9.774;2023-06-04T00:34:34;6.45;;;1.58;;
59950;SDS011;45812;53.540;9.774;2023-06-04T00:37:00;2.42;;;1.15;;
59950;SDS011;45812;53.540;9.774;2023-06-04T00:39:26;1.38;;;1.27;;
59950;SDS011;45812;53.540;9.774;2023-06-04T00:41:51;1.38;;;1.17;;
59950;SDS011;45812;53.540;9.774;2023-06-04T00:44:17;9.47;;;2.10;;
59950;SDS011;45812;53.540;9.774;2023-06-04T00:46:42;4.07;;;1.67;;
59950;SDS011;45812;53.540;9.774;2023-06-04T00:49:10;3.25;;;1.73;;
59950;SDS011;45812;53.540;9.774;2023-06-04T00:51:37;4.13;;;1.50;;
59950;SDS011;45812;53.540;9.774;2023-06-04T00:54:02;6.55;;;1.88;;
59950;SDS011;45812;53.540;9.774;2023-06-04T00:56:33;5.47;;;1.77;;
59950;SDS011;45812;53.540;9.774;2023-06-04T00:58:59;4.78;;;1.77;;
59950;SDS011;45812;53.540;9.774;2023-06-04T01:04:01;2.25;;;1.73;;
59950;SDS011;45812;53.540;9.774;2023-06-04T01:06:36;2.70;;;1.73;;
59950;SDS011;45812;53.540;9.774;2023-06-04T01:09:04;5.15;;;2.05;;
59950;SDS011;45812;53.540;9.774;2023-06-04T01:11:39;2.70;;;1.58;;
59950;SDS011;45812;53.540;9.774;2023-06-04T01:14:06;3.97;;;1.98;;
59950;SDS011;45812;53.540;9.774;2023-06-04T01:16:42;3.22;;;1.83;;
59950;SDS011;45812;53.540;9.774;2023-06-04T01:22:17;4.22;;;2.25;;
59950;SDS011;45812;53.540;9.774;2023-06-04T01:24:56;3.75;;;1.90;;
59950;SDS011;45812;53.540;9.774;2023-06-04T01:27:27;2.38;;;1.83;;
59950;SDS011;45812;53.540;9.774;2023-06-04T01:29:54;1.70;;;1.60;;
59950;SDS011;45812;53.540;9.774;2023-06-04T01:32:21;3.25;;;2.30;;
59950;SDS011;45812;53.540;9.774;2023-06-04T01:34:48;2.03;;;1.80;;
59950;SDS011;45812;53.540;9.774;2023-06-04T01:37:13;4.22;;;1.83;;
59950;SDS011;45812;53.540;9.774;2023-06-04T01:39:38;3.70;;;1.83;;
59950;SDS011;45812;53.540;9.774;2023-06-04T01:42:04;2.00;;;1.75;;
59950;SDS011;45812;53.540;9.774;2023-06-04T01:44:29;3.58;;;2.10;;
59950;SDS011;45812;53.540;9.774;2023-06-04T01:46:55;3.85;;;2.20;;
59950;SDS011;45812;53.540;9.774;2023-06-04T01:49:20;3.60;;;2.13;;
59950;SDS011;45812;53.540;9.774;2023-06-04T01:51:45;3.70;;;1.80;;
59950;SDS011;45812;53.540;9.774;2023-06-04T01:54:10;2.42;;;2.08;;
59950;SDS011;45812;53.540;9.774;2023-06-04T01:56:36;4.83;;;2.20;;
59950;SDS011;45812;53.540;9.774;2023-06-04T01:59:01;5.27;;;1.93;;
59950;SDS011;45812;53.540;9.774;2023-06-04T02:01:27;2.95;;;1.88;;
59950;SDS011;45812;53.540;9.774;2023-06-04T02:03:52;3.72;;;1.92;;
59950;SDS011;45812;53.540;9.774;2023-06-04T02:06:17;3.30;;;1.85;;
59950;SDS011;45812;53.540;9.774;2023-06-04T02:08:42;4.85;;;1.95;;
59950;SDS011;45812;53.540;9.774;2023-06-04T02:11:08;2.95;;;1.92;;
59950;SDS011;45812;53.540;9.774;2023-06-04T02:13:34;4.78;;;2.30;;
59950;SDS011;45812;53.540;9.774;2023-06-04T02:15:59;2.13;;;1.95;;
59950;SDS011;45812;53.540;9.774;2023-06-04T02:18:24;4.53;;;2.37;;
59950;SDS011;45812;53.540;9.774;2023-06-04T02:20:50;4.82;;;2.10;;
59950;SDS011;45812;53.540;9.774;2023-06-04T02:23:16;2.00;;;1.73;;
59950;SDS011;45812;53.540;9.774;2023-06-04T02:25:43;4.15;;;2.10;;
59950;SDS011;45812;53.540;9.774;2023-06-04T02:28:09;5.63;;;2.15;;
59950;SDS011;45812;53.540;9.774;2023-06-04T02:30:35;3.13;;;2.13;;
59950;SDS011;45812;53.540;9.774;2023-06-04T02:33:00;2.65;;;1.98;;
59950;SDS011;45812;53.540;9.774;2023-06-04T02:35:29;2.17;;;1.95;;
59950;SDS011;45812;53.540;9.774;2023-06-04T02:37:55;3.33;;;2.10;;
59950;SDS011;45812;53.540;9.774;2023-06-04T02:40:24;4.68;;;2.47;;
59950;SDS011;45812;53.540;9.774;2023-06-04T02:42:50;3.15;;;2.05;;
59950;SDS011;45812;53.540;9.774;2023-06-04T02:45:17;3.60;;;2.10;;
59950;SDS011;45812;53.540;9.774;2023-06-04T02:47:42;5.88;;;2.30;;
59950;SDS011;45812;53.540;9.774;2023-06-04T02:50:07;2.97;;;2.40;;
59950;SDS011;45812;53.540;9.774;2023-06-04T02:52:33;2.25;;;1.73;;
59950;SDS011;45812;53.540;9.774;2023-06-04T02:55:01;2.53;;;2.03;;
59950;SDS011;45812;53.540;9.774;2023-06-04T02:57:28;3.05;;;1.70;;
59950;SDS011;45812;53.540;9.774;2023-06-04T02:59:54;5.57;;;2.47;;
59950;SDS011;45812;53.540;9.774;2023-06-04T03:02:20;8.52;;;2.17;;
59950;SDS011;45812;53.540;9.774;2023-06-04T03:04:45;5.28;;;1.92;;
59950;SDS011;45812;53.540;9.774;2023-06-04T03:07:13;2.83;;;1.83;;
59950;SDS011;45812;53.540;9.774;2023-06-04T03:09:38;2.30;;;2.10;;
59950;SDS011;45812;53.540;9.774;2023-06-04T03:12:03;4.60;;;2.13;;
59950;SDS011;45812;53.540;9.774;2023-06-04T03:14:29;7.25;;;2.10;;
59950;SDS011;45812;53.540;9.774;2023-06-04T03:16:58;3.00;;;1.80;;
59950;SDS011;45812;53.540;9.774;2023-06-04T03:19:36;12.88;;;2.30;;
59950;SDS011;45812;53.540;9.774;2023-06-04T03:22:02;4.05;;;1.27;;
59950;SDS011;45812;53.540;9.774;2023-06-04T03:24:30;2.03;;;1.67;;
59950;SDS011;45812;53.540;9.774;2023-06-04T03:26:59;4.32;;;1.67;;
59950;SDS011;45812;53.540;9.774;2023-06-04T03:29:25;3.42;;;1.85;;
59950;SDS011;45812;53.540;9.774;2023-06-04T03:31:50;1.50;;;1.40;;
59950;SDS011;45812;53.540;9.774;2023-06-04T03:34:15;3.72;;;1.90;;
59950;SDS011;45812;53.540;9.774;2023-06-04T03:36:40;7.75;;;2.38;;
59950;SDS011;45812;53.540;9.774;2023-06-04T03:39:06;2.67;;;2.13;;
59950;SDS011;45812;53.540;9.774;2023-06-04T03:41:31;4.65;;;2.00;;
59950;SDS011;45812;53.540;9.774;2023-06-04T03:43:56;2.67;;;2.35;;
59950;SDS011;45812;53.540;9.774;2023-06-04T03:46:22;5.65;;;2.33;;
59950;SDS011;45812;53.540;9.774;2023-06-04T03:48:50;2.30;;;2.03;;
59950;SDS011;45812;53.540;9.774;2023-06-04T03:51:15;3.17;;;2.10;;
59950;SDS011;45812;53.540;9.774;2023-06-04T03:53:41;3.20;;;2.00;;
59950;SDS011;45812;53.540;9.774;2023-06-04T03:56:06;2.65;;;1.85;;
59950;SDS011;45812;53.540;9.774;2023-06-04T03:58:31;5.20;;;2.15;;
59950;SDS011;45812;53.540;9.774;2023-06-04T04:00:58;6.13;;;2.10;;
59950;SDS011;45812;53.540;9.774;2023-06-04T04:03:23;5.55;;;2.10;;
59950;SDS011;45812;53.540;9.774;2023-06-04T04:05:48;4.35;;;1.92;;
59950;SDS011;45812;53.540;9.774;2023-06-04T04:08:13;5.25;;;2.53;;
59950;SDS011;45812;53.540;9.774;2023-06-04T04:10:41;1.90;;;1.70;;
59950;SDS011;45812;53.540;9.774;2023-06-04T04:13:06;1.67;;;1.55;;
59950;SDS011;45812;53.540;9.774;2023-06-04T04:15:31;5.88;;;2.78;;
59950;SDS011;45812;53.540;9.774;2023-06-04T04:17:56;5.28;;;2.28;;
59950;SDS011;45812;53.540;9.774;2023-06-04T04:20:22;3.05;;;2.10;;
59950;SDS011;45812;53.540;9.774;2023-06-04T04:22:47;4.80;;;2.20;;
59950;SDS011;45812;53.540;9.774;2023-06-04T04:25:12;4.10;;;1.77;;
59950;SDS011;45812;53.540;9.774;2023-06-04T04:27:37;6.07;;;1.92;;
59950;SDS011;45812;53.540;9.774;2023-06-04T04:30:05;2.90;;;1.58;;
59950;SDS011;45812;53.540;9.774;2023-06-04T04:32:31;4.38;;;2.15;;
59950;SDS011;45812;53.540;9.774;2023-06-04T04:34:56;7.93;;;2.70;;
59950;SDS011;45812;53.540;9.774;2023-06-04T04:37:22;5.93;;;2.30;;
59950;SDS011;45812;53.540;9.774;2023-06-04T04:39:47;6.90;;;1.92;;
59950;SDS011;45812;53.540;9.774;2023-06-04T04:42:16;4.15;;;2.28;;
59950;SDS011;45812;53.540;9.774;2023-06-04T04:44:42;5.88;;;2.55;;
59950;SDS011;45812;53.540;9.774;2023-06-04T04:47:07;4.97;;;2.80;;
59950;SDS011;45812;53.540;9.774;2023-06-04T04:49:32;7.20;;;2.75;;
59950;SDS011;45812;53.540;9.774;2023-06-04T04:51:57;4.22;;;2.45;;
59950;SDS011;45812;53.540;9.774;2023-06-04T04:54:23;6.47;;;2.45;;
59950;SDS011;45812;53.540;9.774;2023-06-04T04:56:48;3.53;;;2.65;;
59950;SDS011;45812;53.540;9.774;2023-06-04T04:59:13;7.18;;;3.00;;
59950;SDS011;45812;53.540;9.774;2023-06-04T05:01:38;10.30;;;2.72;;
59950;SDS011;45812;53.540;9.774;2023-06-04T05:04:04;8.65;;;3.00;;
59950;SDS011;45812;53.540;9.774;2023-06-04T05:06:29;8.80;;;2.30;;
59950;SDS011;45812;53.540;9.774;2023-06-04T05:08:54;7.72;;;3.00;;
59950;SDS011;45812;53.540;9.774;2023-06-04T05:11:19;7.93;;;2.45;;
59950;SDS011;45812;53.540;9.774;2023-06-04T05:13:46;11.35;;;3.63;;
59950;SDS011;45812;53.540;9.774;2023-06-04T05:16:11;5.10;;;2.50;;
59950;SDS011;45812;53.540;9.774;2023-06-04T05:18:37;9.50;;;2.28;;
59950;SDS011;45812;53.540;9.774;2023-06-04T05:21:06;10.02;;;2.47;;
59950;SDS011;45812;53.540;9.774;2023-06-04T05:23:32;6.07;;;2.30;;
59950;SDS011;45812;53.540;9.774;2023-06-04T05:26:02;8.85;;;2.67;;
59950;SDS011;45812;53.540;9.774;2023-06-04T05:28:28;7.22;;;2.75;;
59950;SDS011;45812;53.540;9.774;2023-06-04T05:30:53;7.57;;;2.00;;
59950;SDS011;45812;53.540;9.774;2023-06-04T05:33:25;6.63;;;2.58;;
59950;SDS011;45812;53.540;9.774;2023-06-04T05:35:50;10.25;;;2.85;;
59950;SDS011;45812;53.540;9.774;2023-06-04T05:38:25;8.40;;;2.30;;
59950;SDS011;45812;53.540;9.774;2023-06-04T05:40:55;11.85;;;3.50;;
59950;SDS011;45812;53.540;9.774;2023-06-04T05:43:21;4.47;;;2.17;;
59950;SDS011;45812;53.540;9.774;2023-06-04T05:45:47;4.47;;;2.03;;
59950;SDS011;45812;53.540;9.774;2023-06-04T05:48:12;5.72;;;2.60;;
59950;SDS011;45812;53.540;9.774;2023-06-04T05:50:38;7.30;;;2.60;;
59950;SDS011;45812;53.540;9.774;2023-06-04T05:53:03;5.83;;;2.67;;
59950;SDS011;45812;53.540;9.774;2023-06-04T05:55:28;11.95;;;2.58;;
59950;SDS011;45812;53.540;9.774;2023-06-04T05:57:54;4.93;;;2.15;;
59950;SDS011;45812;53.540;9.774;2023-06-04T06:00:19;7.53;;;2.72;;
59950;SDS011;45812;53.540;9.774;2023-06-04T06:02:45;5.65;;;2.40;;
59950;SDS011;45812;53.540;9.774;2023-06-04T06:05:13;7.80;;;2.20;;
59950;SDS011;45812;53.540;9.774;2023-06-04T06:07:39;5.38;;;2.50;;
59950;SDS011;45812;53.540;9.774;2023-06-04T06:10:05;8.38;;;2.33;;
59950;SDS011;45812;53.540;9.774;2023-06-04T06:12:30;8.25;;;2.60;;
59950;SDS011;45812;53.540;9.774;2023-06-04T06:14:56;9.30;;;2.15;;
59950;SDS011;45812;53.540;9.774;2023-06-04T06:17:21;9.03;;;2.17;;
59950;SDS011;45812;53.540;9.774;2023-06-04T06:19:46;4.35;;;1.98;;
59950;SDS011;45812;53.540;9.774;2023-06-04T06:22:11;5.70;;;2.22;;
59950;SDS011;45812;53.540;9.774;2023-06-04T06:24:37;6.55;;;1.52;;
59950;SDS011;45812;53.540;9.774;2023-06-04T06:27:04;6.25;;;2.35;;
59950;SDS011;45812;53.540;9.774;2023-06-04T06:29:29;9.88;;;2.95;;
59950;SDS011;45812;53.540;9.774;2023-06-04T06:31:55;8.27;;;2.13;;
59950;SDS011;45812;53.540;9.774;2023-06-04T06:34:20;10.40;;;2.38;;
59950;SDS011;45812;53.540;9.774;2023-06-04T06:36:46;4.78;;;2.33;;
59950;SDS011;45812;53.540;9.774;2023-06-04T06:39:11;5.47;;;2.25;;
59950;SDS011;45812;53.540;9.774;2023-06-04T06:41:37;11.43;;;2.30;;
59950;SDS011;45812;53.540;9.774;2023-06-04T06:44:03;9.32;;;3.20;;
59950;SDS011;45812;53.540;9.774;2023-06-04T06:46:29;6.55;;;2.20;;
59950;SDS011;45812;53.540;9.774;2023-06-04T06:48:54;4.57;;;1.90;;
59950;SDS011;45812;53.540;9.774;2023-06-04T06:51:19;5.40;;;1.80;;
59950;SDS011;45812;53.540;9.774;2023-06-04T06:53:45;11.60;;;2.92;;
59950;SDS011;45812;53.540;9.774;2023-06-04T06:56:10;5.82;;;2.45;;
59950;SDS011;45812;53.540;9.774;2023-06-04T06:58:35;8.10;;;1.57;;
59950;SDS011;45812;53.540;9.774;2023-06-04T07:01:01;11.38;;;1.92;;
59950;SDS011;45812;53.540;9.774;2023-06-04T07:03:26;3.80;;;1.70;;
59950;SDS011;45812;53.540;9.774;2023-06-04T07:05:52;6.82;;;1.58;;
59950;SDS011;45812;53.540;9.774;2023-06-04T07:08:17;6.33;;;1.90;;
59950;SDS011;45812;53.540;9.774;2023-06-04T07:10:42;10.82;;;2.33;;
59950;SDS011;45812;53.540;9.774;2023-06-04T07:13:08;4.22;;;2.60;;
59950;SDS011;45812;53.540;9.774;2023-06-04T07:15:33;3.40;;;1.80;;
59950;SDS011;45812;53.540;9.774;2023-06-04T07:17:58;11.80;;;2.30;;
59950;SDS011;45812;53.540;9.774;2023-06-04T07:20:24;12.00;;;2.47;;
59950;SDS011;45812;53.540;9.774;2023-06-04T07:22:49;11.10;;;2.15;;
59950;SDS011;45812;53.540;9.774;2023-06-04T07:25:14;6.43;;;1.87;;
59950;SDS011;45812;53.540;9.774;2023-06-04T07:27:39;5.80;;;1.70;;
59950;SDS011;45812;53.540;9.774;2023-06-04T07:30:06;6.03;;;2.40;;
59950;SDS011;45812;53.540;9.774;2023-06-04T07:32:31;7.50;;;1.80;;
59950;SDS011;45812;53.540;9.774;2023-06-04T07:34:56;7.37;;;1.97;;
59950;SDS011;45812;53.540;9.774;2023-06-04T07:37:22;3.87;;;1.90;;
59950;SDS011;45812;53.540;9.774;2023-06-04T07:39:47;10.83;;;2.10;;
59950;SDS011;45812;53.540;9.774;2023-06-04T07:42:13;3.90;;;2.23;;
59950;SDS011;45812;53.540;9.774;2023-06-04T07:44:38;6.82;;;1.85;;
59950;SDS011;45812;53.540;9.774;2023-06-04T07:47:03;2.40;;;1.70;;
59950;SDS011;45812;53.540;9.774;2023-06-04T07:49:29;5.18;;;1.88;;
59950;SDS011;45812;53.540;9.774;2023-06-04T07:51:54;2.88;;;1.65;;
59950;SDS011;45812;53.540;9.774;2023-06-04T07:54:19;8.45;;;1.90;;
59950;SDS011;45812;53.540;9.774;2023-06-04T07:56:44;5.57;;;1.77;;
59950;SDS011;45812;53.540;9.774;2023-06-04T07:59:10;8.43;;;2.27;;
59950;SDS011;45812;53.540;9.774;2023-06-04T08:01:35;6.23;;;2.20;;
59950;SDS011;45812;53.540;9.774;2023-06-04T08:04:00;3.67;;;1.58;;
59950;SDS011;45812;53.540;9.774;2023-06-04T08:06:26;9.38;;;1.83;;
59950;SDS011;45812;53.540;9.774;2023-06-04T08:08:51;3.50;;;1.85;;
59950;SDS011;45812;53.540;9.774;2023-06-04T08:11:17;6.05;;;2.30;;
59950;SDS011;45812;53.540;9.774;2023-06-04T08:13:43;2.90;;;1.60;;
59950;SDS011;45812;53.540;9.774;2023-06-04T08:16:08;5.90;;;1.53;;
59950;SDS011;45812;53.540;9.774;2023-06-04T08:18:38;8.23;;;2.30;;
59950;SDS011;45812;53.540;9.774;2023-06-04T08:21:04;4.22;;;1.52;;
59950;SDS011;45812;53.540;9.774;2023-06-04T08:23:30;2.65;;;1.50;;
59950;SDS011;45812;53.540;9.774;2023-06-04T08:25:56;5.30;;;1.98;;
59950;SDS011;45812;53.540;9.774;2023-06-04T08:28:21;9.13;;;2.00;;
59950;SDS011;45812;53.540;9.774;2023-06-04T08:30:46;9.13;;;1.93;;
59950;SDS011;45812;53.540;9.774;2023-06-04T08:33:12;3.43;;;1.40;;
59950;SDS011;45812;53.540;9.774;2023-06-04T08:35:37;5.57;;;1.77;;
59950;SDS011;45812;53.540;9.774;2023-06-04T08:38:02;4.57;;;1.67;;
59950;SDS011;45812;53.540;9.774;2023-06-04T08:40:27;5.03;;;1.50;;
59950;SDS011;45812;53.540;9.774;2023-06-04T08:42:54;2.72;;;1.55;;
59950;SDS011;45812;53.540;9.774;2023-06-04T08:45:23;1.70;;;1.23;;
59950;SDS011;45812;53.540;9.774;2023-06-04T08:47:49;6.32;;;2.38;;
59950;SDS011;45812;53.540;9.774;2023-06-04T08:50:23;4.15;;;1.40;;
59950;SDS011;45812;53.540;9.774;2023-06-04T08:52:53;6.78;;;1.70;;
59950;SDS011;45812;53.540;9.774;2023-06-04T08:55:19;4.55;;;1.45;;
59950;SDS011;45812;53.540;9.774;2023-06-04T08:57:45;2.78;;;1.33;;
59950;SDS011;45812;53.540;9.774;2023-06-04T09:00:14;1.52;;;1.27;;
59950;SDS011;45812;53.540;9.774;2023-06-04T09:02:40;2.83;;;1.48;;
59950;SDS011;45812;53.540;9.774;2023-06-04T09:05:06;3.05;;;1.23;;
59950;SDS011;45812;53.540;9.774;2023-06-04T09:07:35;4.63;;;2.50;;
59950;SDS011;45812;53.540;9.774;2023-06-04T09:10:02;1.83;;;1.17;;
59950;SDS011;45812;53.540;9.774;2023-06-04T09:12:29;4.70;;;2.38;;
59950;SDS011;45812;53.540;9.774;2023-06-04T09:14:55;1.88;;;1.52;;
59950;SDS011;45812;53.540;9.774;2023-06-04T09:17:24;4.57;;;1.40;;
59950;SDS011;45812;53.540;9.774;2023-06-04T09:19:50;4.18;;;1.10;;
59950;SDS011;45812;53.540;9.774;2023-06-04T09:22:16;7.82;;;2.28;;
59950;SDS011;45812;53.540;9.774;2023-06-04T09:24:42;1.20;;;1.10;;
59950;SDS011;45812;53.540;9.774;2023-06-04T09:27:18;4.63;;;2.13;;
59950;SDS011;45812;53.540;9.774;2023-06-04T09:29:56;5.53;;;1.80;;
59950;SDS011;45812;53.540;9.774;2023-06-04T09:32:23;3.63;;;1.80;;
59950;SDS011;45812;53.540;9.774;2023-06-04T09:34:48;3.88;;;2.22;;
59950;SDS011;45812;53.540;9.774;2023-06-04T09:37:14;1.90;;;1.48;;
59950;SDS011;45812;53.540;9.774;2023-06-04T09:39:42;4.03;;;1.75;;
59950;SDS011;45812;53.540;9.774;2023-06-04T09:42:07;2.72;;;1.50;;
59950;SDS011;45812;53.540;9.774;2023-06-04T09:44:42;5.55;;;1.77;;
59950;SDS011;45812;53.540;9.774;2023-06-04T09:47:08;2.17;;;1.45;;
59950;SDS011;45812;53.540;9.774;2023-06-04T09:49:43;4.73;;;1.53;;
59950;SDS011;45812;53.540;9.774;2023-06-04T09:52:09;2.15;;;1.50;;
59950;SDS011;45812;53.540;9.774;2023-06-04T09:54:35;5.68;;;1.92;;
59950;SDS011;45812;53.540;9.774;2023-06-04T09:57:05;3.05;;;1.55;;
59950;SDS011;45812;53.540;9.774;2023-06-04T09:59:40;2.28;;;1.50;;
59950;SDS011;45812;53.540;9.774;2023-06-04T10:02:08;3.92;;;1.27;;
59950;SDS011;45812;53.540;9.774;2023-06-04T10:04:36;5.78;;;1.63;;
59950;SDS011;45812;53.540;9.774;2023-06-04T10:07:07;4.13;;;1.40;;
59950;SDS011;45812;53.540;9.774;2023-06-04T10:09:34;4.57;;;1.38;;
59950;SDS011;45812;53.540;9.774;2023-06-04T10:12:07;3.22;;;1.10;;
59950;SDS011;45812;53.540;9.774;2023-06-04T10:14:39;3.40;;;1.15;;
59950;SDS011;45812;53.540;9.774;2023-06-04T10:17:07;2.53;;;1.30;;
59950;SDS011;45812;53.540;9.774;2023-06-04T10:19:35;3.45;;;1.60;;
59950;SDS011;45812;53.540;9.774;2023-06-04T10:22:03;4.50;;;1.33;;
59950;SDS011;45812;53.540;9.774;2023-06-04T10:24:29;1.23;;;1.05;;
59950;SDS011;45812;53.540;9.774;2023-06-04T10:26:55;6.03;;;1.65;;
59950;SDS011;45812;53.540;9.774;2023-06-04T10:29:23;3.22;;;1.25;;
59950;SDS011;45812;53.540;9.774;2023-06-04T10:31:53;4.72;;;1.70;;
59950;SDS011;45812;53.540;9.774;2023-06-04T10:34:19;5.95;;;1.73;;
59950;SDS011;45812;53.540;9.774;2023-06-04T10:36:45;5.97;;;1.40;;
59950;SDS011;45812;53.540;9.774;2023-06-04T10:39:10;5.88;;;1.70;;
59950;SDS011;45812;53.540;9.774;2023-06-04T10:41:36;4.07;;;1.70;;
59950;SDS011;45812;53.540;9.774;2023-06-04T10:44:02;4.45;;;1.42;;
59950;SDS011;45812;53.540;9.774;2023-06-04T10:46:36;8.10;;;1.40;;
59950;SDS011;45812;53.540;9.774;2023-06-04T10:49:06;2.58;;;1.45;;
59950;SDS011;45812;53.540;9.774;2023-06-04T10:51:33;5.30;;;2.10;;
59950;SDS011;45812;53.540;9.774;2023-06-04T10:54:00;2.45;;;1.50;;
59950;SDS011;45812;53.540;9.774;2023-06-04T10:56:29;5.28;;;1.45;;
59950;SDS011;45812;53.540;9.774;2023-06-04T10:59:13;3.72;;;1.25;;
59950;SDS011;45812;53.540;9.774;2023-06-04T11:01:39;1.55;;;1.30;;
59950;SDS011;45812;53.540;9.774;2023-06-04T11:04:05;4.18;;;1.75;;
59950;SDS011;45812;53.540;9.774;2023-06-04T11:06:30;3.38;;;1.88;;
59950;SDS011;45812;53.540;9.774;2023-06-04T11:09:01;3.67;;;1.27;;
59950;SDS011;45812;53.540;9.774;2023-06-04T11:11:30;5.90;;;1.52;;
59950;SDS011;45812;53.540;9.774;2023-06-04T11:14:06;4.63;;;1.75;;
59950;SDS011;45812;53.540;9.774;2023-06-04T11:16:32;5.20;;;1.45;;
59950;SDS011;45812;53.540;9.774;2023-06-04T11:18:58;2.87;;;1.33;;
59950;SDS011;45812;53.540;9.774;2023-06-04T11:21:24;1.45;;;1.33;;
59950;SDS011;45812;53.540;9.774;2023-06-04T11:23:54;1.90;;;1.58;;
59950;SDS011;45812;53.540;9.774;2023-06-04T11:26:20;2.33;;;1.20;;
59950;SDS011;45812;53.540;9.774;2023-06-04T11:28:48;4.00;;;1.60;;
59950;SDS011;45812;53.540;9.774;2023-06-04T11:31:14;3.58;;;1.77;;
59950;SDS011;45812;53.540;9.774;2023-06-04T11:33:42;5.70;;;1.40;;
59950;SDS011;45812;53.540;9.774;2023-06-04T11:36:08;4.60;;;1.05;;
59950;SDS011;45812;53.540;9.774;2023-06-04T11:38:34;2.58;;;1.30;;
59950;SDS011;45812;53.540;9.774;2023-06-04T11:40:59;3.73;;;1.20;;
59950;SDS011;45812;53.540;9.774;2023-06-04T11:43:26;2.35;;;1.48;;
59950;SDS011;45812;53.540;9.774;2023-06-04T11:45:53;2.83;;;1.15;;
59950;SDS011;45812;53.540;9.774;2023-06-04T11:48:18;2.05;;;1.10;;
59950;SDS011;45812;53.540;9.774;2023-06-04T11:50:45;4.82;;;1.30;;
59950;SDS011;45812;53.540;9.774;2023-06-04T11:53:10;1.90;;;1.30;;
59950;SDS011;45812;53.540;9.774;2023-06-04T11:55:36;2.65;;;1.50;;
59950;SDS011;45812;53.540;9.774;2023-06-04T11:58:03;2.85;;;1.40;;
59950;SDS011;45812;53.540;9.774;2023-06-04T12:00:28;3.47;;;1.23;;
59950;SDS011;45812;53.540;9.774;2023-06-04T12:02:55;3.20;;;1.15;;
59950;SDS011;45812;53.540;9.774;2023-06-04T12:05:28;1.55;;;1.10;;
59950;SDS011;45812;53.540;9.774;2023-06-04T12:08:04;2.03;;;1.58;;
59950;SDS011;45812;53.540;9.774;2023-06-04T12:10:36;1.75;;;1.20;;
59950;SDS011;45812;53.540;9.774;2023-06-04T12:13:02;1.53;;;1.13;;
59950;SDS011;45812;53.540;9.774;2023-06-04T12:15:27;1.87;;;1.00;;
59950;SDS011;45812;53.540;9.774;2023-06-04T12:17:53;2.43;;;1.03;;
59950;SDS011;45812;53.540;9.774;2023-06-04T12:20:30;2.55;;;1.15;;
59950;SDS011;45812;53.540;9.774;2023-06-04T12:22:57;1.10;;;1.05;;
59950;SDS011;45812;53.540;9.774;2023-06-04T12:25:27;1.53;;;1.30;;
59950;SDS011;45812;53.540;9.774;2023-06-04T12:27:53;1.90;;;1.38;;
59950;SDS011;45812;53.540;9.774;2023-06-04T12:30:18;7.03;;;1.10;;
59950;SDS011;45812;53.540;9.774;2023-06-04T12:32:44;5.18;;;1.35;;
59950;SDS011;45812;53.540;9.774;2023-06-04T12:35:10;6.50;;;1.17;;
59950;SDS011;45812;53.540;9.774;2023-06-04T12:37:35;2.22;;;1.25;;
59950;SDS011;45812;53.540;9.774;2023-06-04T12:40:01;5.00;;;1.40;;
59950;SDS011;45812;53.540;9.774;2023-06-04T12:42:26;1.60;;;1.13;;
59950;SDS011;45812;53.540;9.774;2023-06-04T12:44:53;2.80;;;2.05;;
59950;SDS011;45812;53.540;9.774;2023-06-04T12:47:18;1.20;;;1.08;;
59950;SDS011;45812;53.540;9.774;2023-06-04T12:49:45;4.70;;;1.60;;
59950;SDS011;45812;53.540;9.774;2023-06-04T12:52:10;1.40;;;1.30;;
59950;SDS011;45812;53.540;9.774;2023-06-04T12:54:35;3.73;;;1.50;;
59950;SDS011;45812;53.540;9.774;2023-06-04T12:57:00;2.27;;;1.03;;
59950;SDS011;45812;53.540;9.774;2023-06-04T12:59:26;2.22;;;1.20;;
59950;SDS011;45812;53.540;9.774;2023-06-04T13:01:53;2.80;;;1.30;;
59950;SDS011;45812;53.540;9.774;2023-06-04T13:04:19;2.97;;;1.15;;
59950;SDS011;45812;53.540;9.774;2023-06-04T13:06:44;2.47;;;1.25;;
59950;SDS011;45812;53.540;9.774;2023-06-04T13:09:12;1.40;;;1.20;;
59950;SDS011;45812;53.540;9.774;2023-06-04T13:11:39;0.98;;;0.90;;
59950;SDS011;45812;53.540;9.774;2023-06-04T13:14:05;1.52;;;0.88;;
59950;SDS011;45812;53.540;9.774;2023-06-04T13:16:30;0.70;;;0.70;;
59950;SDS011;45812;53.540;9.774;2023-06-04T13:18:56;2.85;;;1.17;;
59950;SDS011;45812;53.540;9.774;2023-06-04T13:21:21;3.07;;;1.20;;
59950;SDS011;45812;53.540;9.774;2023-06-04T13:23:46;1.10;;;1.00;;
59950;SDS011;45812;53.540;9.774;2023-06-04T13:26:12;2.75;;;1.05;;
59950;SDS011;45812;53.540;9.774;2023-06-04T13:28:38;1.83;;;1.20;;
59950;SDS011;45812;53.540;9.774;2023-06-04T13:31:03;3.33;;;1.23;;
59950;SDS011;45812;53.540;9.774;2023-06-04T13:33:28;2.23;;;1.30;;
59950;SDS011;45812;53.540;9.774;2023-06-04T13:35:53;1.93;;;1.37;;
59950;SDS011;45812;53.540;9.774;2023-06-04T13:38:19;3.03;;;1.30;;
59950;SDS011;45812;53.540;9.774;2023-06-04T13:40:44;4.60;;;1.67;;
59950;SDS011;45812;53.540;9.774;2023-06-04T13:43:09;4.70;;;1.30;;
59950;SDS011;45812;53.540;9.774;2023-06-04T13:45:35;1.05;;;1.05;;
59950;SDS011;45812;53.540;9.774;2023-06-04T13:48:00;2.73;;;1.30;;
59950;SDS011;45812;53.540;9.774;2023-06-04T13:50:30;2.03;;;1.33;;
59950;SDS011;45812;53.540;9.774;2023-06-04T13:52:55;3.55;;;1.85;;
59950;SDS011;45812;53.540;9.774;2023-06-04T13:55:20;1.60;;;1.10;;
59950;SDS011;45812;53.540;9.774;2023-06-04T13:57:46;1.93;;;1.60;;
59950;SDS011;45812;53.540;9.774;2023-06-04T14:00:11;2.70;;;1.70;;
59950;SDS011;45812;53.540;9.774;2023-06-04T14:02:38;2.38;;;1.30;;
59950;SDS011;45812;53.540;9.774;2023-06-04T14:05:04;3.67;;;2.17;;
59950;SDS011;45812;53.540;9.774;2023-06-04T14:07:30;3.50;;;1.92;;
59950;SDS011;45812;53.540;9.774;2023-06-04T14:09:55;3.90;;;1.73;;
59950;SDS011;45812;53.540;9.774;2023-06-04T14:12:23;2.40;;;1.30;;
59950;SDS011;45812;53.540;9.774;2023-06-04T14:14:49;1.73;;;1.63;;
59950;SDS011;45812;53.540;9.774;2023-06-04T14:17:15;2.65;;;1.60;;
59950;SDS011;45812;53.540;9.774;2023-06-04T14:19:40;2.00;;;1.27;;
59950;SDS011;45812;53.540;9.774;2023-06-04T14:22:06;2.67;;;1.20;;
59950;SDS011;45812;53.540;9.774;2023-06-04T14:24:31;2.17;;;1.23;;
59950;SDS011;45812;53.540;9.774;2023-06-04T14:26:57;1.92;;;1.33;;
59950;SDS011;45812;53.540;9.774;2023-06-04T14:29:22;2.30;;;1.70;;
59950;SDS011;45812;53.540;9.774;2023-06-04T14:31:47;4.15;;;1.60;;
59950;SDS011;45812;53.540;9.774;2023-06-04T14:34:13;2.75;;;1.50;;
59950;SDS011;45812;53.540;9.774;2023-06-04T14:36:38;1.57;;;1.33;;
59950;SDS011;45812;53.540;9.774;2023-06-04T14:39:03;2.78;;;1.35;;
59950;SDS011;45812;53.540;9.774;2023-06-04T14:41:29;3.00;;;1.40;;
59950;SDS011;45812;53.540;9.774;2023-06-04T14:43:55;3.03;;;1.80;;
59950;SDS011;45812;53.540;9.774;2023-06-04T14:46:20;2.55;;;1.52;;
59950;SDS011;45812;53.540;9.774;2023-06-04T14:48:45;1.97;;;1.30;;